Bergen Op Zoom, Netherlands
Current Conditions -  °F | °C
As of 2:55 PM on Monday 24 Nov 2014 (Local Time) from EHWO Reporting Station
Overcast Overcast  
Wind Chill: 46°   Ceiling: 26000
Heat Index: 48°   Visibility: 6mi
Dew Point: 41°   Wind: 6mph
Humidity: 76%   Direction: 280°W
Pressure: 30.3"   Gusts: NA
Location:  51.51°N, 4.3°E
Report Text: EHWO 241355Z AUTO 28005KT 9999 OVC260 09/05 Q1026 BLU 27004KT 9999 FEW023
Loading
Personal Weather Stations






























Interactive Weather Map New forecast layout! Learn more

10-Day Weather Forecast

Advertisements
Track Severe Weather on mobile